sensor_id;sensor_type;location;lat;lon;timestamp;pressure;altitude;pressure_sealevel;temperature;humidity
39341;BME280;25059;52.132;21.062;2023-04-07T00:02:18;100232.06;;;6.50;100.00
39341;BME280;25059;52.132;21.062;2023-04-07T00:05:02;100253.88;;;6.83;100.00
39341;BME280;25059;52.132;21.062;2023-04-07T00:07:47;100257.94;;;6.60;100.00
39341;BME280;25059;52.132;21.062;2023-04-07T00:10:32;100254.94;;;6.75;100.00
39341;BME280;25059;52.132;21.062;2023-04-07T00:13:16;100242.28;;;6.59;100.00
39341;BME280;25059;52.132;21.062;2023-04-07T00:16:01;100250.38;;;6.84;100.00
39341;BME280;25059;52.132;21.062;2023-04-07T00:18:46;100239.16;;;6.80;100.00
39341;BME280;25059;52.132;21.062;2023-04-07T00:21:30;100244.63;;;6.69;100.00
39341;BME280;25059;52.132;21.062;2023-04-07T00:24:15;100240.53;;;6.93;100.00
39341;BME280;25059;52.132;21.062;2023-04-07T00:27:00;100244.03;;;6.94;100.00
39341;BME280;25059;52.132;21.062;2023-04-07T00:29:45;100226.88;;;6.84;100.00
39341;BME280;25059;52.132;21.062;2023-04-07T00:32:30;100236.19;;;6.94;100.00
39341;BME280;25059;52.132;21.062;2023-04-07T00:35:14;100222.28;;;6.92;100.00
39341;BME280;25059;52.132;21.062;2023-04-07T00:37:59;100227.31;;;6.99;100.00
39341;BME280;25059;52.132;21.062;2023-04-07T00:40:44;100211.97;;;6.87;100.00
39341;BME280;25059;52.132;21.062;2023-04-07T00:43:29;100205.19;;;6.80;100.00
39341;BME280;25059;52.132;21.062;2023-04-07T00:46:13;100232.63;;;6.96;100.00
39341;BME280;25059;52.132;21.062;2023-04-07T00:48:57;100222.38;;;6.89;100.00
39341;BME280;25059;52.132;21.062;2023-04-07T00:51:42;100221.16;;;7.02;100.00
39341;BME280;25059;52.132;21.062;2023-04-07T00:54:29;100213.69;;;6.88;100.00
39341;BME280;25059;52.132;21.062;2023-04-07T00:57:14;100226.06;;;7.14;100.00
39341;BME280;25059;52.132;21.062;2023-04-07T00:59:58;100216.34;;;7.19;100.00
39341;BME280;25059;52.132;21.062;2023-04-07T01:02:46;100210.56;;;7.06;100.00
39341;BME280;25059;52.132;21.062;2023-04-07T01:05:41;100210.50;;;7.09;100.00
39341;BME280;25059;52.132;21.062;2023-04-07T01:08:37;100210.81;;;6.97;100.00
39341;BME280;25059;52.132;21.062;2023-04-07T01:14:23;100220.91;;;7.11;100.00
39341;BME280;25059;52.132;21.062;2023-04-07T01:17:09;100199.63;;;6.92;100.00
39341;BME280;25059;52.132;21.062;2023-04-07T01:19:58;100219.19;;;7.10;100.00
39341;BME280;25059;52.132;21.062;2023-04-07T01:22:45;100209.34;;;7.20;100.00
39341;BME280;25059;52.132;21.062;2023-04-07T01:28:45;100210.84;;;7.28;100.00
39341;BME280;25059;52.132;21.062;2023-04-07T01:31:34;100209.31;;;7.21;100.00
39341;BME280;25059;52.132;21.062;2023-04-07T01:34:21;100203.16;;;7.22;100.00
39341;BME280;25059;52.132;21.062;2023-04-07T01:37:08;100212.09;;;7.15;100.00
39341;BME280;25059;52.132;21.062;2023-04-07T01:39:53;100203.16;;;7.22;100.00
39341;BME280;25059;52.132;21.062;2023-04-07T01:42:38;100195.88;;;7.33;100.00
39341;BME280;25059;52.132;21.062;2023-04-07T01:45:25;100204.38;;;7.41;100.00
39341;BME280;25059;52.132;21.062;2023-04-07T01:48:11;100202.47;;;7.16;100.00
39341;BME280;25059;52.132;21.062;2023-04-07T01:50:57;100192.31;;;7.36;100.00
39341;BME280;25059;52.132;21.062;2023-04-07T01:53:44;100203.78;;;7.32;100.00
39341;BME280;25059;52.132;21.062;2023-04-07T01:56:29;100182.38;;;7.49;100.00
39341;BME280;25059;52.132;21.062;2023-04-07T01:59:14;100192.88;;;7.47;100.00
39341;BME280;25059;52.132;21.062;2023-04-07T02:01:59;100196.91;;;7.59;100.00
39341;BME280;25059;52.132;21.062;2023-04-07T02:04:55;100195.06;;;7.62;100.00
39341;BME280;25059;52.132;21.062;2023-04-07T02:10:34;100202.03;;;7.62;100.00
39341;BME280;25059;52.132;21.062;2023-04-07T02:13:21;100204.69;;;7.60;100.00
39341;BME280;25059;52.132;21.062;2023-04-07T02:16:07;100193.28;;;7.63;100.00
39341;BME280;25059;52.132;21.062;2023-04-07T02:18:52;100191.53;;;7.63;100.00
39341;BME280;25059;52.132;21.062;2023-04-07T02:21:39;100192.53;;;7.59;100.00
39341;BME280;25059;52.132;21.062;2023-04-07T02:24:24;100190.41;;;7.42;100.00
39341;BME280;25059;52.132;21.062;2023-04-07T02:27:08;100205.00;;;7.79;100.00
39341;BME280;25059;52.132;21.062;2023-04-07T02:29:53;100204.25;;;7.75;100.00
39341;BME280;25059;52.132;21.062;2023-04-07T02:32:38;100193.25;;;7.64;100.00
39341;BME280;25059;52.132;21.062;2023-04-07T02:35:23;100159.00;;;7.42;100.00
39341;BME280;25059;52.132;21.062;2023-04-07T02:38:07;100188.03;;;7.92;100.00
39341;BME280;25059;52.132;21.062;2023-04-07T02:40:52;100181.50;;;7.77;100.00
39341;BME280;25059;52.132;21.062;2023-04-07T02:43:36;100193.38;;;7.89;100.00
39341;BME280;25059;52.132;21.062;2023-04-07T02:46:21;100193.91;;;8.00;100.00
39341;BME280;25059;52.132;21.062;2023-04-07T02:49:05;100190.50;;;7.69;100.00
39341;BME280;25059;52.132;21.062;2023-04-07T02:51:50;100196.59;;;7.69;100.00
39341;BME280;25059;52.132;21.062;2023-04-07T02:54:34;100195.03;;;7.92;100.00
39341;BME280;25059;52.132;21.062;2023-04-07T02:57:19;100197.41;;;7.99;100.00
39341;BME280;25059;52.132;21.062;2023-04-07T03:00:04;100197.28;;;8.04;100.00
39341;BME280;25059;52.132;21.062;2023-04-07T03:02:48;100194.22;;;8.18;100.00
39341;BME280;25059;52.132;21.062;2023-04-07T03:05:33;100202.47;;;8.05;100.00
39341;BME280;25059;52.132;21.062;2023-04-07T03:08:17;100201.13;;;7.92;100.00
39341;BME280;25059;52.132;21.062;2023-04-07T03:11:02;100203.28;;;8.07;100.00
39341;BME280;25059;52.132;21.062;2023-04-07T03:13:47;100182.38;;;8.06;100.00
39341;BME280;25059;52.132;21.062;2023-04-07T03:16:31;100205.13;;;8.04;100.00
39341;BME280;25059;52.132;21.062;2023-04-07T03:19:16;100197.66;;;7.92;100.00
39341;BME280;25059;52.132;21.062;2023-04-07T03:22:00;100206.75;;;8.08;100.00
39341;BME280;25059;52.132;21.062;2023-04-07T03:24:45;100200.09;;;7.98;100.00
39341;BME280;25059;52.132;21.062;2023-04-07T03:27:30;100202.31;;;8.10;100.00
39341;BME280;25059;52.132;21.062;2023-04-07T03:30:14;100206.84;;;8.05;100.00
39341;BME280;25059;52.132;21.062;2023-04-07T03:32:59;100201.56;;;8.06;100.00
39341;BME280;25059;52.132;21.062;2023-04-07T03:35:44;100191.81;;;8.12;100.00
39341;BME280;25059;52.132;21.062;2023-04-07T03:38:29;100194.69;;;8.02;100.00
39341;BME280;25059;52.132;21.062;2023-04-07T03:41:13;100202.47;;;8.05;100.00
39341;BME280;25059;52.132;21.062;2023-04-07T03:43:59;100190.31;;;8.03;100.00
39341;BME280;25059;52.132;21.062;2023-04-07T03:46:43;100207.16;;;7.94;100.00
39341;BME280;25059;52.132;21.062;2023-04-07T03:49:28;100188.03;;;7.92;100.00
39341;BME280;25059;52.132;21.062;2023-04-07T03:52:14;100192.19;;;7.99;100.00
39341;BME280;25059;52.132;21.062;2023-04-07T03:54:59;100200.28;;;8.20;100.00
39341;BME280;25059;52.132;21.062;2023-04-07T03:57:43;100203.03;;;8.15;100.00
39341;BME280;25059;52.132;21.062;2023-04-07T04:00:28;100193.69;;;8.06;100.00
39341;BME280;25059;52.132;21.062;2023-04-07T04:03:14;100181.19;;;8.16;100.00
39341;BME280;25059;52.132;21.062;2023-04-07T04:05:59;100197.31;;;8.30;100.00
39341;BME280;25059;52.132;21.062;2023-04-07T04:08:44;100198.00;;;8.37;100.00
39341;BME280;25059;52.132;21.062;2023-04-07T04:11:28;100191.16;;;8.33;100.00
39341;BME280;25059;52.132;21.062;2023-04-07T04:14:14;100190.44;;;8.26;100.00
39341;BME280;25059;52.132;21.062;2023-04-07T04:16:59;100193.78;;;8.33;100.00
39341;BME280;25059;52.132;21.062;2023-04-07T04:19:44;100200.41;;;8.43;100.00
39341;BME280;25059;52.132;21.062;2023-04-07T04:22:29;100200.41;;;8.43;100.00
39341;BME280;25059;52.132;21.062;2023-04-07T04:25:15;100204.03;;;8.39;100.00
39341;BME280;25059;52.132;21.062;2023-04-07T04:27:59;100206.47;;;8.45;100.00
39341;BME280;25059;52.132;21.062;2023-04-07T04:30:44;100210.91;;;8.43;100.00
39341;BME280;25059;52.132;21.062;2023-04-07T04:33:28;100213.47;;;8.45;100.00
39341;BME280;25059;52.132;21.062;2023-04-07T04:36:13;100201.84;;;8.25;100.00
39341;BME280;25059;52.132;21.062;2023-04-07T04:38:59;100214.22;;;8.48;100.00
39341;BME280;25059;52.132;21.062;2023-04-07T04:41:44;100204.41;;;8.27;100.00
39341;BME280;25059;52.132;21.062;2023-04-07T04:44:29;100211.03;;;8.38;100.00
39341;BME280;25059;52.132;21.062;2023-04-07T04:47:14;100216.94;;;8.45;100.00
39341;BME280;25059;52.132;21.062;2023-04-07T04:49:58;100210.00;;;8.44;100.00
39341;BME280;25059;52.132;21.062;2023-04-07T04:52:43;100205.34;;;8.52;100.00
39341;BME280;25059;52.132;21.062;2023-04-07T04:55:27;100212.13;;;8.59;100.00
39341;BME280;25059;52.132;21.062;2023-04-07T04:58:12;100220.81;;;8.60;100.00
39341;BME280;25059;52.132;21.062;2023-04-07T05:00:57;100212.47;;;8.49;100.00
39341;BME280;25059;52.132;21.062;2023-04-07T05:03:43;100215.75;;;8.55;100.00
39341;BME280;25059;52.132;21.062;2023-04-07T05:06:28;100205.59;;;8.45;100.00
39341;BME280;25059;52.132;21.062;2023-04-07T05:09:12;100208.59;;;8.32;100.00
39341;BME280;25059;52.132;21.062;2023-04-07T05:11:57;100210.41;;;8.58;100.00
39341;BME280;25059;52.132;21.062;2023-04-07T05:14:42;100215.88;;;8.77;100.00
39341;BME280;25059;52.132;21.062;2023-04-07T05:17:27;100204.44;;;8.80;100.00
39341;BME280;25059;52.132;21.062;2023-04-07T05:20:11;100201.88;;;8.78;100.00
39341;BME280;25059;52.132;21.062;2023-04-07T05:22:56;100219.47;;;8.74;100.00
39341;BME280;25059;52.132;21.062;2023-04-07T05:25:40;100208.41;;;8.91;100.00
39341;BME280;25059;52.132;21.062;2023-04-07T05:28:25;100194.38;;;8.92;100.00
39341;BME280;25059;52.132;21.062;2023-04-07T05:31:10;100222.84;;;9.03;100.00
39341;BME280;25059;52.132;21.062;2023-04-07T05:33:55;100219.81;;;8.90;100.00
39341;BME280;25059;52.132;21.062;2023-04-07T05:36:39;100220.19;;;9.04;100.00
39341;BME280;25059;52.132;21.062;2023-04-07T05:39:24;100216.81;;;9.26;100.00
39341;BME280;25059;52.132;21.062;2023-04-07T05:42:09;100219.06;;;9.12;100.00
39341;BME280;25059;52.132;21.062;2023-04-07T05:44:54;100217.72;;;9.25;100.00
39341;BME280;25059;52.132;21.062;2023-04-07T05:47:39;100214.28;;;9.23;100.00
39341;BME280;25059;52.132;21.062;2023-04-07T05:50:24;100218.13;;;9.37;100.00
39341;BME280;25059;52.132;21.062;2023-04-07T05:53:08;100224.19;;;9.39;100.00
39341;BME280;25059;52.132;21.062;2023-04-07T05:55:53;100223.00;;;9.23;100.00
39341;BME280;25059;52.132;21.062;2023-04-07T05:58:38;100215.97;;;9.49;100.00
39341;BME280;25059;52.132;21.062;2023-04-07T06:01:23;100224.69;;;9.49;100.00
39341;BME280;25059;52.132;21.062;2023-04-07T06:04:07;100213.00;;;9.58;100.00
39341;BME280;25059;52.132;21.062;2023-04-07T06:06:52;100212.66;;;9.67;100.00
39341;BME280;25059;52.132;21.062;2023-04-07T06:09:38;100209.53;;;9.81;100.00
39341;BME280;25059;52.132;21.062;2023-04-07T06:12:22;100204.78;;;9.67;100.00
39341;BME280;25059;52.132;21.062;2023-04-07T06:15:07;100205.06;;;9.59;100.00
39341;BME280;25059;52.132;21.062;2023-04-07T06:17:52;100209.00;;;9.71;100.00
39341;BME280;25059;52.132;21.062;2023-04-07T06:20:36;100203.38;;;9.58;100.00
39341;BME280;25059;52.132;21.062;2023-04-07T06:23:21;100213.00;;;9.81;100.00
39341;BME280;25059;52.132;21.062;2023-04-07T06:26:09;100210.03;;;9.90;100.00
39341;BME280;25059;52.132;21.062;2023-04-07T06:28:54;100203.53;;;9.77;100.00
39341;BME280;25059;52.132;21.062;2023-04-07T06:31:39;100197.97;;;9.85;100.00
39341;BME280;25059;52.132;21.062;2023-04-07T06:34:24;100217.88;;;10.14;100.00
39341;BME280;25059;52.132;21.062;2023-04-07T06:37:08;100207.94;;;10.22;100.00
39341;BME280;25059;52.132;21.062;2023-04-07T06:39:53;100203.41;;;10.47;100.00
39341;BME280;25059;52.132;21.062;2023-04-07T06:42:38;100197.72;;;10.58;100.00
39341;BME280;25059;52.132;21.062;2023-04-07T06:45:22;100196.97;;;10.54;100.00
39341;BME280;25059;52.132;21.062;2023-04-07T06:48:07;100213.25;;;10.84;100.00
39341;BME280;25059;52.132;21.062;2023-04-07T06:50:52;100214.09;;;11.25;100.00
39341;BME280;25059;52.132;21.062;2023-04-07T06:53:36;100201.06;;;11.22;100.00
39341;BME280;25059;52.132;21.062;2023-04-07T06:56:21;100219.75;;;11.16;100.00
39341;BME280;25059;52.132;21.062;2023-04-07T06:59:06;100209.78;;;11.04;100.00
39341;BME280;25059;52.132;21.062;2023-04-07T07:01:51;100195.53;;;11.28;100.00
39341;BME280;25059;52.132;21.062;2023-04-07T07:04:36;100209.34;;;11.33;100.00
39341;BME280;25059;52.132;21.062;2023-04-07T07:07:21;100210.28;;;10.92;100.00
39341;BME280;25059;52.132;21.062;2023-04-07T07:10:08;100206.31;;;11.43;100.00
39341;BME280;25059;52.132;21.062;2023-04-07T07:12:53;100204.56;;;11.23;100.00
39341;BME280;25059;52.132;21.062;2023-04-07T07:15:37;100204.91;;;10.95;100.00
39341;BME280;25059;52.132;21.062;2023-04-07T07:18:22;100198.72;;;10.76;100.00
39341;BME280;25059;52.132;21.062;2023-04-07T07:21:07;100201.88;;;11.04;100.00
39341;BME280;25059;52.132;21.062;2023-04-07T07:23:51;100207.91;;;11.26;100.00
39341;BME280;25059;52.132;21.062;2023-04-07T07:26:35;100207.50;;;11.36;100.00
39341;BME280;25059;52.132;21.062;2023-04-07T07:29:20;100198.56;;;11.40;100.00
39341;BME280;25059;52.132;21.062;2023-04-07T07:32:04;100205.03;;;11.51;100.00
39341;BME280;25059;52.132;21.062;2023-04-07T07:34:49;100212.31;;;11.26;100.00
39341;BME280;25059;52.132;21.062;2023-04-07T07:37:34;100220.25;;;11.45;100.00
39341;BME280;25059;52.132;21.062;2023-04-07T07:40:19;100228.53;;;11.56;100.00
39341;BME280;25059;52.132;21.062;2023-04-07T07:43:04;100199.41;;;11.79;100.00
39341;BME280;25059;52.132;21.062;2023-04-07T07:45:49;100196.53;;;12.21;100.00
39341;BME280;25059;52.132;21.062;2023-04-07T07:48:34;100218.09;;;12.83;100.00
39341;BME280;25059;52.132;21.062;2023-04-07T07:51:20;100214.47;;;13.20;100.00
39341;BME280;25059;52.132;21.062;2023-04-07T07:54:05;100210.63;;;13.43;100.00
39341;BME280;25059;52.132;21.062;2023-04-07T07:56:50;100216.22;;;13.70;100.00
39341;BME280;25059;52.132;21.062;2023-04-07T07:59:36;100212.06;;;14.13;100.00
39341;BME280;25059;52.132;21.062;2023-04-07T08:02:20;100201.91;;;14.21;100.00
39341;BME280;25059;52.132;21.062;2023-04-07T08:05:05;100218.13;;;14.15;100.00
39341;BME280;25059;52.132;21.062;2023-04-07T08:07:51;100207.28;;;14.19;100.00
39341;BME280;25059;52.132;21.062;2023-04-07T08:10:35;100215.31;;;14.34;100.00
39341;BME280;25059;52.132;21.062;2023-04-07T08:13:20;100210.78;;;14.20;100.00
39341;BME280;25059;52.132;21.062;2023-04-07T08:16:05;100217.59;;;13.93;100.00
39341;BME280;25059;52.132;21.062;2023-04-07T08:18:50;100221.69;;;13.98;100.00
39341;BME280;25059;52.132;21.062;2023-04-07T08:21:34;100211.47;;;14.08;100.00
39341;BME280;25059;52.132;21.062;2023-04-07T08:24:21;100205.84;;;13.82;100.00
39341;BME280;25059;52.132;21.062;2023-04-07T08:27:05;100213.94;;;14.27;100.00
39341;BME280;25059;52.132;21.062;2023-04-07T08:29:58;100210.44;;;14.26;100.00
39341;BME280;25059;52.132;21.062;2023-04-07T08:32:44;100214.03;;;14.25;100.00
39341;BME280;25059;52.132;21.062;2023-04-07T08:35:28;100200.47;;;14.31;100.00
39341;BME280;25059;52.132;21.062;2023-04-07T08:38:13;100209.91;;;14.35;100.00
39341;BME280;25059;52.132;21.062;2023-04-07T08:41:02;100206.19;;;14.85;100.00
39341;BME280;25059;52.132;21.062;2023-04-07T08:43:47;100195.09;;;14.78;100.00
39341;BME280;25059;52.132;21.062;2023-04-07T08:46:33;100215.03;;;15.14;100.00
39341;BME280;25059;52.132;21.062;2023-04-07T08:49:18;100199.25;;;15.12;100.00
39341;BME280;25059;52.132;21.062;2023-04-07T08:55:29;100208.53;;;16.05;100.00
39341;BME280;25059;52.132;21.062;2023-04-07T08:58:14;100199.09;;;15.87;100.00
39341;BME280;25059;52.132;21.062;2023-04-07T09:00:59;100210.44;;;15.89;100.00
39341;BME280;25059;52.132;21.062;2023-04-07T09:03:45;100203.13;;;16.06;100.00
39341;BME280;25059;52.132;21.062;2023-04-07T09:06:32;100211.94;;;15.50;100.00
39341;BME280;25059;52.132;21.062;2023-04-07T09:09:17;100205.50;;;15.26;100.00
39341;BME280;25059;52.132;21.062;2023-04-07T09:12:02;100212.69;;;15.24;100.00
39341;BME280;25059;52.132;21.062;2023-04-07T09:14:46;100199.75;;;14.59;100.00
39341;BME280;25059;52.132;21.062;2023-04-07T09:17:31;100203.63;;;14.22;100.00
39341;BME280;25059;52.132;21.062;2023-04-07T09:20:16;100202.06;;;14.34;100.00
39341;BME280;25059;52.132;21.062;2023-04-07T09:23:00;100198.16;;;14.57;100.00
39341;BME280;25059;52.132;21.062;2023-04-07T09:25:45;100201.63;;;14.41;100.00
39341;BME280;25059;52.132;21.062;2023-04-07T09:28:40;100219.22;;;14.11;100.00
39341;BME280;25059;52.132;21.062;2023-04-07T09:31:45;100203.53;;;13.92;100.00
39341;BME280;25059;52.132;21.062;2023-04-07T09:34:32;100206.94;;;14.41;100.00
39341;BME280;25059;52.132;21.062;2023-04-07T09:37:21;100209.72;;;15.00;100.00
39341;BME280;25059;52.132;21.062;2023-04-07T09:40:06;100212.56;;;14.51;100.00
39341;BME280;25059;52.132;21.062;2023-04-07T09:42:51;100205.38;;;15.13;100.00
39341;BME280;25059;52.132;21.062;2023-04-07T09:45:36;100207.69;;;15.47;100.00
39341;BME280;25059;52.132;21.062;2023-04-07T09:48:23;100204.47;;;15.42;100.00
39341;BME280;25059;52.132;21.062;2023-04-07T09:51:12;100206.97;;;15.60;100.00
39341;BME280;25059;52.132;21.062;2023-04-07T09:53:57;100207.91;;;15.73;100.00
39341;BME280;25059;52.132;21.062;2023-04-07T09:56:43;100202.22;;;15.79;100.00
39341;BME280;25059;52.132;21.062;2023-04-07T09:59:30;100208.84;;;15.72;100.00
39341;BME280;25059;52.132;21.062;2023-04-07T10:02:15;100195.22;;;15.78;100.00
39341;BME280;25059;52.132;21.062;2023-04-07T10:05:01;100202.69;;;15.86;100.00
39341;BME280;25059;52.132;21.062;2023-04-07T10:07:46;100217.38;;;15.63;100.00
39341;BME280;25059;52.132;21.062;2023-04-07T10:10:31;100214.91;;;15.74;100.00
39341;BME280;25059;52.132;21.062;2023-04-07T10:13:16;100204.09;;;16.32;100.00
39341;BME280;25059;52.132;21.062;2023-04-07T10:19:36;100207.25;;;16.25;100.00
39341;BME280;25059;52.132;21.062;2023-04-07T10:22:21;100201.94;;;16.25;100.00
39341;BME280;25059;52.132;21.062;2023-04-07T10:25:08;100204.34;;;16.15;100.00
39341;BME280;25059;52.132;21.062;2023-04-07T10:27:58;100222.81;;;16.17;100.00
39341;BME280;25059;52.132;21.062;2023-04-07T10:30:43;100210.09;;;16.22;100.00
39341;BME280;25059;52.132;21.062;2023-04-07T10:33:47;100209.03;;;15.97;100.00
39341;BME280;25059;52.132;21.062;2023-04-07T10:36:31;100215.94;;;16.00;100.00
39341;BME280;25059;52.132;21.062;2023-04-07T10:39:18;100212.41;;;15.99;100.00
39341;BME280;25059;52.132;21.062;2023-04-07T10:42:02;100209.25;;;16.21;100.00
39341;BME280;25059;52.132;21.062;2023-04-07T10:44:47;100227.06;;;16.19;100.00
39341;BME280;25059;52.132;21.062;2023-04-07T10:47:35;100220.88;;;16.33;100.00
39341;BME280;25059;52.132;21.062;2023-04-07T10:50:38;100219.22;;;16.03;100.00
39341;BME280;25059;52.132;21.062;2023-04-07T10:53:23;100222.28;;;15.97;100.00
39341;BME280;25059;52.132;21.062;2023-04-07T10:56:08;100221.22;;;15.43;100.00
39341;BME280;25059;52.132;21.062;2023-04-07T10:59:13;100208.63;;;15.32;100.00
39341;BME280;25059;52.132;21.062;2023-04-07T11:04:59;100232.34;;;15.19;100.00
39341;BME280;25059;52.132;21.062;2023-04-07T11:07:47;100226.78;;;14.80;100.00
39341;BME280;25059;52.132;21.062;2023-04-07T11:10:34;100240.13;;;14.93;100.00
39341;BME280;25059;52.132;21.062;2023-04-07T11:13:19;100215.03;;;15.14;100.00
39341;BME280;25059;52.132;21.062;2023-04-07T11:16:04;100219.38;;;15.15;100.00
39341;BME280;25059;52.132;21.062;2023-04-07T11:18:49;100236.97;;;15.16;100.00
39341;BME280;25059;52.132;21.062;2023-04-07T11:21:33;100234.41;;;15.00;100.00
39341;BME280;25059;52.132;21.062;2023-04-07T11:24:35;100237.28;;;14.81;100.00
39341;BME280;25059;52.132;21.062;2023-04-07T11:27:20;100239.50;;;14.73;100.00
39341;BME280;25059;52.132;21.062;2023-04-07T11:30:07;100234.03;;;14.76;100.00
39341;BME280;25059;52.132;21.062;2023-04-07T11:32:55;100240.41;;;14.88;100.00
39341;BME280;25059;52.132;21.062;2023-04-07T11:35:48;100241.81;;;14.79;100.00
39341;BME280;25059;52.132;21.062;2023-04-07T11:38:35;100244.41;;;14.49;100.00
39341;BME280;25059;52.132;21.062;2023-04-07T11:41:22;100246.72;;;14.56;100.00
39341;BME280;25059;52.132;21.062;2023-04-07T11:44:08;100251.50;;;14.49;100.00
39341;BME280;25059;52.132;21.062;2023-04-07T11:46:56;100257.91;;;14.45;100.00
39341;BME280;25059;52.132;21.062;2023-04-07T11:49:45;100259.69;;;14.60;100.00
39341;BME280;25059;52.132;21.062;2023-04-07T11:52:40;100258.41;;;14.51;100.00
39341;BME280;25059;52.132;21.062;2023-04-07T11:55:25;100262.66;;;14.54;100.00
39341;BME280;25059;52.132;21.062;2023-04-07T11:58:10;100255.81;;;14.34;100.00
39341;BME280;25059;52.132;21.062;2023-04-07T12:00:57;100263.50;;;14.23;100.00
39341;BME280;25059;52.132;21.062;2023-04-07T12:03:59;100249.41;;;14.07;100.00
39341;BME280;25059;52.132;21.062;2023-04-07T12:06:46;100245.25;;;14.34;100.00
39341;BME280;25059;52.132;21.062;2023-04-07T12:09:33;100260.03;;;15.00;100.00
39341;BME280;25059;52.132;21.062;2023-04-07T12:12:27;100262.47;;;15.47;100.00
39341;BME280;25059;52.132;21.062;2023-04-07T12:15:12;100250.50;;;15.98;100.00
39341;BME280;25059;52.132;21.062;2023-04-07T12:17:56;100259.28;;;16.13;100.00
39341;BME280;25059;52.132;21.062;2023-04-07T12:20:41;100268.03;;;15.87;100.00
39341;BME280;25059;52.132;21.062;2023-04-07T12:23:25;100261.72;;;16.30;100.00
39341;BME280;25059;52.132;21.062;2023-04-07T12:26:10;100274.78;;;16.33;100.00
39341;BME280;25059;52.132;21.062;2023-04-07T12:28:55;100276.91;;;16.14;100.00
39341;BME280;25059;52.132;21.062;2023-04-07T12:31:42;100270.94;;;16.52;100.00
39341;BME280;25059;52.132;21.062;2023-04-07T12:34:27;100287.47;;;17.36;100.00
39341;BME280;25059;52.132;21.062;2023-04-07T12:37:11;100276.00;;;18.48;100.00
39341;BME280;25059;52.132;21.062;2023-04-07T12:39:56;100276.63;;;18.64;100.00
39341;BME280;25059;52.132;21.062;2023-04-07T12:42:40;100280.63;;;18.33;100.00
39341;BME280;25059;52.132;21.062;2023-04-07T12:45:25;100285.28;;;18.43;100.00
39341;BME280;25059;52.132;21.062;2023-04-07T12:48:10;100280.59;;;19.18;100.00
39341;BME280;25059;52.132;21.062;2023-04-07T12:50:54;100271.63;;;19.54;100.00
39341;BME280;25059;52.132;21.062;2023-04-07T12:53:39;100279.31;;;19.81;100.00
39341;BME280;25059;52.132;21.062;2023-04-07T12:56:23;100285.53;;;20.80;100.00
39341;BME280;25059;52.132;21.062;2023-04-07T12:59:12;100282.34;;;21.60;91.53
39341;BME280;25059;52.132;21.062;2023-04-07T13:01:56;100288.53;;;20.87;92.38
39341;BME280;25059;52.132;21.062;2023-04-07T13:04:42;100282.59;;;20.07;97.29
39341;BME280;25059;52.132;21.062;2023-04-07T13:07:30;100280.78;;;19.03;100.00
39341;BME280;25059;52.132;21.062;2023-04-07T13:10:14;100294.47;;;18.75;100.00
39341;BME280;25059;52.132;21.062;2023-04-07T13:12:59;100299.34;;;17.83;100.00
39341;BME280;25059;52.132;21.062;2023-04-07T13:15:43;100303.75;;;16.65;100.00
39341;BME280;25059;52.132;21.062;2023-04-07T13:18:28;100306.75;;;15.89;100.00
39341;BME280;25059;52.132;21.062;2023-04-07T13:21:12;100316.66;;;15.27;100.00
39341;BME280;25059;52.132;21.062;2023-04-07T13:23:57;100312.44;;;15.39;100.00
39341;BME280;25059;52.132;21.062;2023-04-07T13:26:42;100315.03;;;17.48;100.00
39341;BME280;25059;52.132;21.062;2023-04-07T13:29:26;100314.38;;;18.82;100.00
39341;BME280;25059;52.132;21.062;2023-04-07T13:32:11;100299.19;;;18.59;100.00
39341;BME280;25059;52.132;21.062;2023-04-07T13:34:56;100307.44;;;17.68;100.00
39341;BME280;25059;52.132;21.062;2023-04-07T13:37:40;100314.72;;;17.52;100.00
39341;BME280;25059;52.132;21.062;2023-04-07T13:40:25;100313.28;;;17.86;100.00
39341;BME280;25059;52.132;21.062;2023-04-07T13:43:10;100319.97;;;18.17;100.00
39341;BME280;25059;52.132;21.062;2023-04-07T13:45:55;100316.44;;;18.17;97.80
39341;BME280;25059;52.132;21.062;2023-04-07T13:48:40;100318.91;;;18.07;94.39
39341;BME280;25059;52.132;21.062;2023-04-07T13:51:25;100316.84;;;18.36;92.25
39341;BME280;25059;52.132;21.062;2023-04-07T13:54:11;100323.28;;;17.95;90.98
39341;BME280;25059;52.132;21.062;2023-04-07T13:56:56;100329.94;;;17.63;94.23
39341;BME280;25059;52.132;21.062;2023-04-07T13:59:40;100334.47;;;16.96;99.60
39341;BME280;25059;52.132;21.062;2023-04-07T14:02:27;100329.34;;;16.66;100.00
39341;BME280;25059;52.132;21.062;2023-04-07T14:05:13;100339.81;;;16.82;100.00
39341;BME280;25059;52.132;21.062;2023-04-07T14:07:57;100339.38;;;16.61;100.00
39341;BME280;25059;52.132;21.062;2023-04-07T14:10:42;100339.34;;;16.20;100.00
39341;BME280;25059;52.132;21.062;2023-04-07T14:13:26;100358.91;;;14.99;100.00
39341;BME280;25059;52.132;21.062;2023-04-07T14:16:11;100366.44;;;14.10;100.00
39341;BME280;25059;52.132;21.062;2023-04-07T14:18:56;100376.38;;;13.38;100.00
39341;BME280;25059;52.132;21.062;2023-04-07T14:21:41;100379.50;;;13.10;100.00
39341;BME280;25059;52.132;21.062;2023-04-07T14:24:26;100377.03;;;12.88;100.00
39341;BME280;25059;52.132;21.062;2023-04-07T14:27:10;100388.31;;;12.73;100.00
39341;BME280;25059;52.132;21.062;2023-04-07T14:29:55;100397.00;;;12.56;100.00